createdAt,value
2019-01-12T00:00:58.020Z,251
2019-01-12T00:01:57.956Z,255.8
2019-01-12T00:02:57.942Z,258.1
2019-01-12T00:03:58.137Z,259.1
2019-01-12T00:04:57.880Z,259.6
2019-01-12T00:05:58.004Z,259.8
2019-01-12T00:06:58.035Z,259.9
2019-01-12T00:07:57.938Z,260
2019-01-12T00:08:57.932Z,260
2019-01-12T00:09:57.878Z,260
2019-01-12T00:10:57.957Z,260
2019-01-12T00:11:58.025Z,260
2019-01-12T00:12:57.952Z,260
2019-01-12T00:13:58.026Z,260
2019-01-12T00:14:57.894Z,260
2019-01-12T00:15:57.874Z,260
2019-01-12T00:16:58.010Z,260
2019-01-12T00:17:57.970Z,260
2019-01-12T00:18:57.982Z,260
2019-01-12T00:19:57.904Z,260
2019-01-12T00:20:57.847Z,260
2019-01-12T00:21:57.868Z,260
2019-01-12T00:22:57.898Z,260
2019-01-12T00:23:57.984Z,260
2019-01-12T00:24:58.081Z,260
2019-01-12T00:25:57.947Z,260
2019-01-12T00:26:57.903Z,260
2019-01-12T00:27:57.915Z,260
2019-01-12T00:28:57.875Z,260
2019-01-12T00:29:57.980Z,260
2019-01-12T00:30:57.949Z,260
2019-01-12T00:31:57.832Z,260
2019-01-12T00:32:57.870Z,260
2019-01-12T00:33:57.873Z,260
2019-01-12T00:34:57.895Z,260
2019-01-12T00:35:57.947Z,260
2019-01-12T00:36:57.876Z,260
2019-01-12T00:37:57.818Z,260
2019-01-12T00:38:57.861Z,260
2019-01-12T00:39:57.861Z,260
2019-01-12T00:40:58.020Z,260
2019-01-12T00:41:57.862Z,260
2019-01-12T00:42:57.850Z,260
2019-01-12T00:43:59.131Z,260
2019-01-12T00:44:57.865Z,260
2019-01-12T00:45:57.875Z,260
2019-01-12T00:46:57.902Z,260
2019-01-12T00:47:57.857Z,260
2019-01-12T00:48:57.923Z,259.7
2019-01-12T00:49:57.893Z,259.8
2019-01-12T00:50:57.981Z,258.6
2019-01-12T00:51:57.982Z,257.3
2019-01-12T00:52:57.908Z,258.7
2019-01-12T00:53:57.852Z,259.4
2019-01-12T00:54:57.902Z,259.7
2019-01-12T00:55:57.897Z,259.9
2019-01-12T00:56:57.937Z,259.9
2019-01-12T00:57:57.944Z,260
2019-01-12T00:58:57.854Z,260
2019-01-12T00:59:57.979Z,260
2019-01-12T01:00:57.871Z,260
2019-01-12T01:01:57.888Z,260
2019-01-12T01:02:57.902Z,260
2019-01-12T01:03:57.902Z,260.8
2019-01-12T01:04:57.802Z,261
2019-01-12T01:05:57.890Z,262.3
2019-01-12T01:06:57.868Z,261.1
2019-01-12T01:07:57.926Z,260.5
2019-01-12T01:08:57.915Z,260.2
2019-01-12T01:09:57.902Z,260.1
2019-01-12T01:10:57.851Z,260.1
2019-01-12T01:11:57.867Z,260
2019-01-12T01:12:57.889Z,260
2019-01-12T01:13:57.967Z,260
2019-01-12T01:14:57.841Z,260
2019-01-12T01:15:57.882Z,260
2019-01-12T01:16:57.853Z,260
2019-01-12T01:17:57.881Z,260
2019-01-12T01:18:57.897Z,260
2019-01-12T01:19:57.847Z,260
2019-01-12T01:20:57.822Z,260
2019-01-12T01:21:57.890Z,260
2019-01-12T01:22:57.852Z,260
2019-01-12T01:23:58.909Z,260
2019-01-12T01:24:57.822Z,260.5
2019-01-12T01:25:57.877Z,260.2
2019-01-12T01:26:57.855Z,260.1
2019-01-12T01:27:57.869Z,260.1
2019-01-12T01:28:57.923Z,260
2019-01-12T01:29:57.920Z,260
2019-01-12T01:30:57.868Z,260
2019-01-12T01:31:57.882Z,260
2019-01-12T01:32:57.878Z,260
2019-01-12T01:33:57.886Z,260
2019-01-12T01:34:57.930Z,260
2019-01-12T01:35:57.860Z,260
2019-01-12T01:36:57.827Z,260
2019-01-12T01:37:57.884Z,260
2019-01-12T01:38:57.945Z,260
2019-01-12T01:39:57.911Z,260
2019-01-12T01:40:57.912Z,260
2019-01-12T01:41:57.874Z,260
2019-01-12T01:42:57.794Z,260
2019-01-12T01:43:57.869Z,260
2019-01-12T01:44:57.877Z,260
2019-01-12T01:45:57.860Z,260
2019-01-12T01:46:57.927Z,260
2019-01-12T01:47:57.851Z,260
2019-01-12T01:48:57.865Z,260
2019-01-12T01:49:57.922Z,260
2019-01-12T01:50:57.938Z,260
2019-01-12T01:51:57.913Z,260
2019-01-12T01:52:57.839Z,260
2019-01-12T01:53:57.763Z,260
2019-01-12T01:54:57.983Z,260
2019-01-12T01:55:57.856Z,260
2019-01-12T01:56:57.862Z,260
2019-01-12T01:57:57.860Z,260
2019-01-12T01:58:57.862Z,260.8
2019-01-12T01:59:57.900Z,260.4
2019-01-12T02:00:57.920Z,260.2
2019-01-12T02:01:57.819Z,260.1
2019-01-12T02:02:57.877Z,260
2019-01-12T02:03:57.818Z,260
2019-01-12T02:04:57.834Z,260
2019-01-12T02:05:57.996Z,260
2019-01-12T02:06:57.843Z,260
2019-01-12T02:07:57.869Z,260
2019-01-12T02:08:57.852Z,260
2019-01-12T02:09:57.809Z,260
2019-01-12T02:10:57.899Z,260
2019-01-12T02:11:57.868Z,260
2019-01-12T02:12:57.842Z,260
2019-01-12T02:13:57.878Z,260
2019-01-12T02:14:57.846Z,260
2019-01-12T02:15:57.775Z,260
2019-01-12T02:16:57.907Z,260
2019-01-12T02:17:57.873Z,261.2
2019-01-12T02:18:57.823Z,260.6
2019-01-12T02:19:57.808Z,260.3
2019-01-12T02:20:57.831Z,260.1
2019-01-12T02:21:57.841Z,260.9
2019-01-12T02:22:57.776Z,260.4
2019-01-12T02:23:57.937Z,260.8
2019-01-12T02:25:03.556Z,260.9
2019-01-12T02:25:57.795Z,260.4
2019-01-12T02:26:57.931Z,260.2
2019-01-12T02:27:57.874Z,260.1
2019-01-12T02:28:57.851Z,260
2019-01-12T02:29:57.835Z,260
2019-01-12T02:30:57.911Z,260
2019-01-12T02:31:57.798Z,260
2019-01-12T02:32:57.812Z,260
2019-01-12T02:33:57.887Z,260
2019-01-12T02:34:57.863Z,260
2019-01-12T02:35:57.856Z,260
2019-01-12T02:36:57.796Z,260
2019-01-12T02:37:57.857Z,260
2019-01-12T02:38:57.861Z,260
2019-01-12T02:39:57.873Z,260
2019-01-12T02:40:57.930Z,260
2019-01-12T02:41:57.818Z,260
2019-01-12T02:42:57.817Z,260
2019-01-12T02:43:57.822Z,260
2019-01-12T02:44:57.910Z,260
2019-01-12T02:45:57.817Z,260
2019-01-12T02:46:57.821Z,260
2019-01-12T02:47:57.837Z,260
2019-01-12T02:48:57.797Z,260
2019-01-12T02:49:57.861Z,260
2019-01-12T02:50:57.854Z,260
2019-01-12T02:51:57.892Z,260
2019-01-12T02:52:57.780Z,260
2019-01-12T02:53:57.777Z,260
2019-01-12T02:54:57.838Z,260
2019-01-12T02:55:57.875Z,260
2019-01-12T02:56:57.914Z,260
2019-01-12T02:57:57.827Z,260
2019-01-12T02:58:57.763Z,260
2019-01-12T02:59:57.822Z,260
2019-01-12T03:00:57.895Z,260
2019-01-12T03:01:57.920Z,260
2019-01-12T03:02:57.849Z,260
2019-01-12T03:03:57.805Z,260
2019-01-12T03:04:57.770Z,260
2019-01-12T03:05:57.911Z,260
2019-01-12T03:06:57.844Z,260
2019-01-12T03:07:57.830Z,260
2019-01-12T03:08:57.852Z,260
2019-01-12T03:09:57.733Z,260
2019-01-12T03:10:57.838Z,260
2019-01-12T03:11:57.828Z,260
2019-01-12T03:12:57.826Z,260
2019-01-12T03:13:57.853Z,260
2019-01-12T03:14:57.838Z,260
2019-01-12T03:15:57.824Z,260
2019-01-12T03:16:57.886Z,260
2019-01-12T03:17:57.938Z,260
2019-01-12T03:18:57.804Z,260
2019-01-12T03:19:57.803Z,260
2019-01-12T03:20:57.770Z,260
2019-01-12T03:21:57.920Z,260
2019-01-12T03:22:57.816Z,260
2019-01-12T03:23:57.801Z,260
2019-01-12T03:24:57.812Z,260
2019-01-12T03:25:57.743Z,260
2019-01-12T03:26:57.816Z,260
2019-01-12T03:27:57.809Z,260
2019-01-12T03:28:57.910Z,260
2019-01-12T03:29:57.812Z,260
2019-01-12T03:30:57.812Z,260
2019-01-12T03:31:57.886Z,260
2019-01-12T03:32:57.876Z,260
2019-01-12T03:33:57.815Z,260
2019-01-12T03:34:57.833Z,260
2019-01-12T03:35:57.821Z,260
2019-01-12T03:36:57.795Z,260
2019-01-12T03:37:57.821Z,260
2019-01-12T03:38:57.765Z,260
2019-01-12T03:39:57.886Z,260
2019-01-12T03:40:57.865Z,260
2019-01-12T03:41:58.334Z,260
2019-01-12T03:42:57.740Z,260
2019-01-12T03:43:57.756Z,260
2019-01-12T03:44:57.810Z,260
2019-01-12T03:45:57.871Z,260
2019-01-12T03:46:57.788Z,260
2019-01-12T03:47:57.800Z,260
2019-01-12T03:48:57.801Z,260
2019-01-12T03:49:57.852Z,260
2019-01-12T03:50:57.778Z,260
2019-01-12T03:51:57.915Z,260
2019-01-12T03:52:57.765Z,260
2019-01-12T03:53:57.786Z,260
2019-01-12T03:54:57.926Z,260
2019-01-12T03:55:57.809Z,260
2019-01-12T03:56:57.789Z,260
2019-01-12T03:57:57.768Z,260
2019-01-12T03:58:57.794Z,260
2019-01-12T03:59:57.826Z,260
2019-01-12T04:00:57.805Z,260
2019-01-12T04:01:57.800Z,260
2019-01-12T04:02:57.869Z,260
2019-01-12T04:03:57.797Z,260
2019-01-12T04:04:57.714Z,260
2019-01-12T04:05:57.804Z,260
2019-01-12T04:06:57.754Z,260
2019-01-12T04:07:57.802Z,260
2019-01-12T04:08:57.823Z,260
2019-01-12T04:09:57.696Z,260
2019-01-12T04:10:57.800Z,260
2019-01-12T04:11:57.817Z,260
2019-01-12T04:12:57.797Z,260
2019-01-12T04:13:57.843Z,260
2019-01-12T04:14:57.817Z,260
2019-01-12T04:15:57.818Z,260
2019-01-12T04:16:57.741Z,260
2019-01-12T04:17:57.797Z,260
2019-01-12T04:18:57.814Z,260
2019-01-12T04:19:57.796Z,260
2019-01-12T04:20:57.821Z,260
2019-01-12T04:21:57.866Z,260
2019-01-12T04:22:57.767Z,260
2019-01-12T04:23:57.763Z,260
2019-01-12T04:24:57.833Z,260
2019-01-12T04:25:57.744Z,260
2019-01-12T04:26:57.804Z,260
2019-01-12T04:27:57.883Z,260
2019-01-12T04:28:57.767Z,260
2019-01-12T04:29:57.835Z,260
2019-01-12T04:30:57.829Z,260
2019-01-12T04:31:57.717Z,260
2019-01-12T04:32:57.834Z,260
2019-01-12T04:33:57.848Z,260
2019-01-12T04:34:57.785Z,260
2019-01-12T04:35:57.750Z,260
2019-01-12T04:36:57.682Z,260
2019-01-12T04:37:57.848Z,260
2019-01-12T04:38:57.791Z,260
2019-01-12T04:39:57.796Z,260
2019-01-12T04:40:57.783Z,260
2019-01-12T04:41:57.776Z,260
2019-01-12T04:42:57.758Z,260
2019-01-12T04:43:57.822Z,260
2019-01-12T04:44:57.784Z,260
2019-01-12T04:45:57.794Z,260
2019-01-12T04:46:57.792Z,260
2019-01-12T04:47:57.710Z,260
2019-01-12T04:48:57.856Z,260
2019-01-12T04:49:57.751Z,260
2019-01-12T04:50:57.795Z,260
2019-01-12T04:51:57.761Z,251.1
2019-01-12T04:52:57.699Z,239.7
2019-01-12T04:53:57.848Z,237
2019-01-12T04:54:57.771Z,244.4
2019-01-12T04:55:57.752Z,252.8
2019-01-12T04:56:57.865Z,256.7
2019-01-12T04:57:57.770Z,258.5
2019-01-12T04:58:57.719Z,259.3
2019-01-12T04:59:57.776Z,259.7
2019-01-12T05:00:57.816Z,259.8
2019-01-12T05:01:57.827Z,259.9
2019-01-12T05:02:57.758Z,260
2019-01-12T05:03:57.753Z,260
2019-01-12T05:04:57.772Z,260
2019-01-12T05:05:57.768Z,260
2019-01-12T05:06:57.838Z,243.8
2019-01-12T05:07:57.840Z,227.9
2019-01-12T05:08:57.758Z,220.8
2019-01-12T05:09:57.702Z,217.7
2019-01-12T05:10:57.946Z,216.2
2019-01-12T05:11:57.768Z,215.6
2019-01-12T05:12:57.815Z,215.3
2019-01-12T05:13:57.848Z,215.1
2019-01-12T05:14:57.687Z,215.1
2019-01-12T05:15:57.718Z,215
2019-01-12T05:16:57.734Z,215
2019-01-12T05:17:57.809Z,227
2019-01-12T05:18:57.735Z,232.6
2019-01-12T05:19:57.762Z,235.2
2019-01-12T05:20:57.727Z,236.4
2019-01-12T05:21:57.745Z,237
2019-01-12T05:22:57.743Z,237.3
2019-01-12T05:23:57.769Z,237.4
2019-01-12T05:24:57.738Z,237.4
2019-01-12T05:25:57.766Z,239.1
2019-01-12T05:26:57.753Z,250.3
2019-01-12T05:27:57.758Z,255.5
2019-01-12T05:28:57.727Z,257.9
2019-01-12T05:29:57.752Z,259
2019-01-12T05:30:57.777Z,259.5
2019-01-12T05:31:57.713Z,259.8
2019-01-12T05:32:57.748Z,259.9
2019-01-12T05:33:57.734Z,260
2019-01-12T05:34:57.758Z,260
2019-01-12T05:35:57.795Z,260
2019-01-12T05:36:57.746Z,260
2019-01-12T05:37:57.793Z,260
2019-01-12T05:38:57.725Z,260
2019-01-12T05:39:57.709Z,260
2019-01-12T05:40:57.742Z,260
2019-01-12T05:41:57.769Z,260
2019-01-12T05:42:57.727Z,251.4
2019-01-12T05:43:57.760Z,232.7
2019-01-12T05:44:57.761Z,223
2019-01-12T05:45:57.701Z,218.7
2019-01-12T05:46:57.701Z,216.7
2019-01-12T05:47:57.719Z,215.8
2019-01-12T05:48:57.760Z,215.4
2019-01-12T05:49:57.827Z,215.2
2019-01-12T05:50:57.728Z,215.1
2019-01-12T05:51:57.761Z,215
2019-01-12T05:52:57.641Z,215
2019-01-12T05:53:57.807Z,215
2019-01-12T05:54:57.715Z,215
2019-01-12T05:56:02.352Z,215
2019-01-12T05:56:57.763Z,215
2019-01-12T05:57:57.816Z,215
2019-01-12T05:58:57.701Z,215
2019-01-12T05:59:57.711Z,215
2019-01-12T06:00:57.762Z,215
2019-01-12T06:01:57.790Z,215
2019-01-12T06:02:57.731Z,215
2019-01-12T06:03:57.726Z,215
2019-01-12T06:04:57.808Z,220
2019-01-12T06:05:57.752Z,229.4
2019-01-12T06:06:57.730Z,233.7
2019-01-12T06:07:57.725Z,235.7
2019-01-12T06:08:57.798Z,236.7
2019-01-12T06:09:57.667Z,237.1
2019-01-12T06:10:57.729Z,237.3
2019-01-12T06:11:57.768Z,237.4
2019-01-12T06:12:57.742Z,237.5
2019-01-12T06:13:57.759Z,237.5
2019-01-12T06:14:57.707Z,237.5
2019-01-12T06:15:57.694Z,237.5
2019-01-12T06:16:57.699Z,237.5
2019-01-12T06:17:57.776Z,237.5
2019-01-12T06:18:57.716Z,237.5
2019-01-12T06:19:57.727Z,237.5
2019-01-12T06:20:57.639Z,237.5
2019-01-12T06:21:57.750Z,247.4
2019-01-12T06:22:57.709Z,253.6
2019-01-12T06:23:57.702Z,257
2019-01-12T06:24:57.823Z,258.6
2019-01-12T06:26:04.987Z,259.4
2019-01-12T06:26:57.758Z,255.7
2019-01-12T06:27:57.756Z,233.7
2019-01-12T06:28:57.704Z,223.4
2019-01-12T06:29:58.779Z,225.3
2019-01-12T06:30:57.696Z,231.9
2019-01-12T06:31:57.781Z,234.9
2019-01-12T06:32:57.701Z,236.3
2019-01-12T06:33:57.730Z,236.9
2019-01-12T06:34:57.750Z,237.2
2019-01-12T06:35:57.727Z,245.2
2019-01-12T06:36:57.750Z,253.2
2019-01-12T06:37:57.845Z,246.8
2019-01-12T06:38:57.708Z,241.8
2019-01-12T06:39:57.723Z,239.5
2019-01-12T06:40:57.725Z,238.4
2019-01-12T06:41:57.739Z,237.9
2019-01-12T06:42:57.687Z,245.9
2019-01-12T06:43:57.710Z,253.5
2019-01-12T06:44:58.913Z,257
2019-01-12T06:45:57.748Z,258.6
2019-01-12T06:46:57.768Z,259.3
2019-01-12T06:47:57.623Z,259.7
2019-01-12T06:48:57.771Z,259.9
2019-01-12T06:49:57.742Z,259.9
2019-01-12T06:50:57.726Z,260
2019-01-12T06:51:57.743Z,259.4
2019-01-12T06:52:57.755Z,255.3
2019-01-12T06:53:57.608Z,257.8
2019-01-12T06:54:57.757Z,259
2019-01-12T06:55:57.764Z,259.5
2019-01-12T06:56:57.733Z,259.8
2019-01-12T06:57:57.710Z,259.9
2019-01-12T06:58:57.642Z,260
2019-01-12T06:59:57.753Z,260
2019-01-12T07:00:57.729Z,260
2019-01-12T07:01:57.734Z,260
2019-01-12T07:02:57.681Z,260
2019-01-12T07:03:57.658Z,260
2019-01-12T07:04:57.713Z,260
2019-01-12T07:05:57.705Z,260
2019-01-12T07:06:57.706Z,236
2019-01-12T07:07:57.741Z,224.4
2019-01-12T07:08:57.701Z,219.3
2019-01-12T07:09:57.689Z,226.7
2019-01-12T07:10:57.809Z,229.5
2019-01-12T07:11:57.680Z,221.9
2019-01-12T07:12:57.703Z,220.3
2019-01-12T07:13:57.686Z,241.7
2019-01-12T07:14:58.238Z,251.8
2019-01-12T07:15:57.688Z,256.2
2019-01-12T07:16:57.637Z,258.3
2019-01-12T07:17:57.761Z,259.2
2019-01-12T07:18:57.730Z,259.6
2019-01-12T07:19:57.937Z,259.8
2019-01-12T07:20:57.708Z,260.4
2019-01-12T07:21:58.955Z,260.2
2019-01-12T07:22:57.846Z,259.5
2019-01-12T07:23:58.099Z,259.8
2019-01-12T07:24:57.741Z,259.9
2019-01-12T07:25:57.911Z,260
2019-01-12T07:26:58.385Z,260
2019-01-12T07:27:57.816Z,260
2019-01-12T07:28:57.793Z,260
2019-01-12T07:29:59.036Z,259
2019-01-12T07:30:57.588Z,235.4
2019-01-12T07:31:57.674Z,224.1
2019-01-12T07:32:57.753Z,219.2
2019-01-12T07:33:57.669Z,209
2019-01-12T07:34:57.721Z,199.9
2019-01-12T07:35:57.635Z,196
2019-01-12T07:36:59.380Z,194.1
2019-01-12T07:38:01.563Z,204.7
2019-01-12T07:38:58.468Z,210.2
2019-01-12T07:39:57.621Z,212.8
2019-01-12T07:40:57.726Z,214
2019-01-12T07:41:57.722Z,214.5
2019-01-12T07:42:57.638Z,214.8
2019-01-12T07:43:58.245Z,214.9
2019-01-12T07:44:58.178Z,215
2019-01-12T07:45:57.582Z,215
2019-01-12T07:46:57.602Z,215
2019-01-12T07:47:57.623Z,196
2019-01-12T07:48:57.910Z,181.6
2019-01-12T07:49:57.954Z,175.3
2019-01-12T07:51:00.042Z,172.4
2019-01-12T07:51:57.649Z,171.1
2019-01-12T07:52:57.673Z,170.5
2019-01-12T07:53:57.679Z,170.2
2019-01-12T07:54:57.656Z,170.1
2019-01-12T07:55:57.645Z,170.1
2019-01-12T07:56:57.698Z,152.4
2019-01-12T07:57:57.977Z,137.3
2019-01-12T07:58:57.622Z,130.5
2019-01-12T07:59:57.616Z,128.6
2019-01-12T08:00:57.644Z,212
2019-01-12T08:01:57.754Z,217.9
2019-01-12T08:02:57.687Z,216.1
2019-01-12T08:03:57.622Z,215.5
2019-01-12T08:04:57.637Z,215.2
2019-01-12T08:05:57.731Z,215.1
2019-01-12T08:06:57.674Z,215
2019-01-12T08:07:57.654Z,215
2019-01-12T08:08:57.706Z,215
2019-01-12T08:09:57.609Z,215
2019-01-12T08:10:57.791Z,215
2019-01-12T08:11:57.671Z,215
2019-01-12T08:12:57.753Z,215
2019-01-12T08:13:57.658Z,215
2019-01-12T08:14:57.665Z,215
2019-01-12T08:15:57.753Z,215
2019-01-12T08:16:57.673Z,215
2019-01-12T08:17:57.701Z,215
2019-01-12T08:18:57.672Z,215
2019-01-12T08:19:57.632Z,215
2019-01-12T08:20:57.741Z,215
2019-01-12T08:21:57.662Z,215
2019-01-12T08:22:57.650Z,215
2019-01-12T08:23:57.718Z,215
2019-01-12T08:24:57.738Z,215
2019-01-12T08:25:57.622Z,215
2019-01-12T08:26:57.692Z,215
2019-01-12T08:27:57.731Z,215
2019-01-12T08:28:57.664Z,215
2019-01-12T08:29:57.666Z,215
2019-01-12T08:30:57.642Z,215
2019-01-12T08:31:57.674Z,215
2019-01-12T08:32:57.721Z,215
2019-01-12T08:33:57.627Z,215
2019-01-12T08:34:57.654Z,215
2019-01-12T08:35:57.634Z,215
2019-01-12T08:36:57.600Z,215
2019-01-12T08:37:57.722Z,215
2019-01-12T08:38:57.676Z,215
2019-01-12T08:39:57.629Z,215
2019-01-12T08:40:57.654Z,215
2019-01-12T08:41:57.629Z,215
2019-01-12T08:42:57.719Z,215
2019-01-12T08:43:58.652Z,215
2019-01-12T08:44:57.598Z,215
2019-01-12T08:45:57.684Z,215
2019-01-12T08:46:57.682Z,215
2019-01-12T08:47:57.646Z,215
2019-01-12T08:48:57.640Z,215
2019-01-12T08:49:57.720Z,215
2019-01-12T08:50:57.648Z,215
2019-01-12T08:51:57.709Z,215
2019-01-12T08:52:57.582Z,215
2019-01-12T08:53:57.706Z,215
2019-01-12T08:54:57.666Z,215
2019-01-12T08:55:57.610Z,215
2019-01-12T08:56:57.683Z,215
2019-01-12T08:57:57.710Z,215
2019-01-12T08:58:57.567Z,217.6
2019-01-12T08:59:57.653Z,221
2019-01-12T09:00:57.667Z,217.8
2019-01-12T09:01:57.725Z,216.3
2019-01-12T09:02:57.645Z,215.6
2019-01-12T09:03:57.605Z,215.3
2019-01-12T09:04:57.660Z,222.5
2019-01-12T09:05:57.667Z,230.6
2019-01-12T09:06:57.730Z,234.3
2019-01-12T09:07:57.643Z,236
2019-01-12T09:08:57.724Z,236.8
2019-01-12T09:09:57.597Z,242.2
2019-01-12T09:10:57.685Z,247.2
2019-01-12T09:11:57.682Z,229.7
2019-01-12T09:12:57.795Z,221.6
2019-01-12T09:13:57.632Z,218
2019-01-12T09:14:57.640Z,227.9
2019-01-12T09:15:57.713Z,233.1
2019-01-12T09:16:58.264Z,239.1
2019-01-12T09:17:57.653Z,244.2
2019-01-12T09:18:57.705Z,228.4
2019-01-12T09:19:57.637Z,221.1
2019-01-12T09:20:57.669Z,217.8
2019-01-12T09:21:57.643Z,216.3
2019-01-12T09:22:57.623Z,227.4
2019-01-12T09:23:57.729Z,232.8
2019-01-12T09:24:57.624Z,235.3
2019-01-12T09:25:57.600Z,218.8
2019-01-12T09:26:57.635Z,204
2019-01-12T09:27:59.255Z,197.6
2019-01-12T09:28:57.623Z,194.9
2019-01-12T09:29:57.730Z,193.6
2019-01-12T09:30:57.561Z,193
2019-01-12T09:31:57.604Z,192.7
2019-01-12T09:32:57.639Z,192.6
2019-01-12T09:33:57.708Z,192.6
2019-01-12T09:34:57.625Z,192.5
2019-01-12T09:35:57.641Z,192.5
2019-01-12T09:36:57.538Z,192.5
2019-01-12T09:37:57.653Z,192.5
2019-01-12T09:38:57.781Z,192.5
2019-01-12T09:39:57.630Z,192.5
2019-01-12T09:40:57.706Z,192.5
2019-01-12T09:41:57.665Z,192.5
2019-01-12T09:42:57.578Z,192.5
2019-01-12T09:43:57.695Z,192.5
2019-01-12T09:44:57.637Z,192.5
2019-01-12T09:45:57.731Z,192.5
2019-01-12T09:46:57.735Z,192.5
2019-01-12T09:47:57.572Z,192.5
2019-01-12T09:48:57.661Z,192.5
2019-01-12T09:49:57.723Z,192.5
2019-01-12T09:50:57.652Z,192.5
2019-01-12T09:51:57.669Z,192.5
2019-01-12T09:52:57.818Z,192.5
2019-01-12T09:53:58.215Z,192.5
2019-01-12T09:54:57.693Z,192.5
2019-01-12T09:55:57.643Z,203.3
2019-01-12T09:56:57.681Z,209.6
2019-01-12T09:58:00.063Z,212.6
2019-01-12T09:58:57.829Z,214.1
2019-01-12T09:59:57.907Z,214.6
2019-01-12T10:00:58.457Z,214.8
2019-01-12T10:01:57.912Z,214.9
2019-01-12T10:02:57.879Z,215
2019-01-12T10:03:57.879Z,215
2019-01-12T10:04:57.912Z,215
2019-01-12T10:05:59.228Z,215
2019-01-12T10:06:57.787Z,215
2019-01-12T10:07:57.818Z,215
2019-01-12T10:08:58.641Z,215
2019-01-12T10:09:57.790Z,215
2019-01-12T10:10:57.771Z,215
2019-01-12T10:12:02.885Z,215
2019-01-12T10:12:57.731Z,215.6
2019-01-12T10:13:57.913Z,215.3
2019-01-12T10:14:58.005Z,215.1
2019-01-12T10:15:58.041Z,215.1
2019-01-12T10:16:58.209Z,215
2019-01-12T10:17:58.081Z,215
2019-01-12T10:18:57.908Z,215
2019-01-12T10:19:57.761Z,215
2019-01-12T10:20:57.744Z,215
2019-01-12T10:21:58.076Z,215
2019-01-12T10:22:57.849Z,215
2019-01-12T10:23:57.900Z,215
2019-01-12T10:24:58.969Z,215
2019-01-12T10:25:57.796Z,215
2019-01-12T10:27:02.331Z,215
2019-01-12T10:27:57.876Z,215
2019-01-12T10:28:57.772Z,215
2019-01-12T10:29:58.041Z,215
2019-01-12T10:30:58.033Z,215
2019-01-12T10:31:57.897Z,215
2019-01-12T10:32:57.992Z,215
2019-01-12T10:34:01.749Z,225.5
2019-01-12T10:34:57.743Z,236.9
2019-01-12T10:35:57.681Z,249.4
2019-01-12T10:36:57.739Z,266
2019-01-12T10:37:57.860Z,286.1
2019-01-12T10:38:57.815Z,268
2019-01-12T10:39:57.828Z,234.6
2019-01-12T10:40:57.894Z,222.9
2019-01-12T10:41:57.725Z,218.4
2019-01-12T10:42:57.902Z,216.6
2019-01-12T10:43:57.675Z,215.7
2019-01-12T10:44:57.650Z,215.3
2019-01-12T10:45:57.577Z,215.2
2019-01-12T10:46:57.611Z,215.1
2019-01-12T10:47:57.637Z,224.6
2019-01-12T10:48:57.624Z,231.5
2019-01-12T10:49:57.676Z,244.4
2019-01-12T10:50:57.583Z,264.6
2019-01-12T10:51:57.603Z,271.2
2019-01-12T10:52:57.583Z,242
2019-01-12T10:53:57.588Z,226.5
2019-01-12T10:54:57.713Z,220.1
2019-01-12T10:55:57.608Z,217.3
2019-01-12T10:56:57.601Z,227
2019-01-12T10:57:57.663Z,220.5
2019-01-12T10:58:57.521Z,217.6
2019-01-12T10:59:57.974Z,216.2
2019-01-12T11:00:57.608Z,215.6
2019-01-12T11:01:57.668Z,215.3
2019-01-12T11:02:57.674Z,215.1
2019-01-12T11:03:57.542Z,215.1
2019-01-12T11:04:57.580Z,226.7
2019-01-12T11:05:57.576Z,232.5
2019-01-12T11:06:57.580Z,240.6
2019-01-12T11:07:57.664Z,250.6
2019-01-12T11:08:57.539Z,255.6
2019-01-12T11:10:03.915Z,258
2019-01-12T11:10:57.606Z,244.8
2019-01-12T11:11:57.575Z,246
2019-01-12T11:12:57.717Z,250.9
2019-01-12T11:13:57.603Z,254.4
2019-01-12T11:14:57.497Z,234
2019-01-12T11:15:57.620Z,229.2
2019-01-12T11:16:57.618Z,233.7
2019-01-12T11:17:57.625Z,236.8
2019-01-12T11:18:57.692Z,236.3
2019-01-12T11:19:57.552Z,233.8
2019-01-12T11:20:57.600Z,223.5
2019-01-12T11:21:57.609Z,218.9
2019-01-12T11:22:57.569Z,216.8
2019-01-12T11:23:57.653Z,215.8
2019-01-12T11:24:57.593Z,215.4
2019-01-12T11:25:57.560Z,215.2
2019-01-12T11:26:57.604Z,215.1
2019-01-12T11:27:57.630Z,215
2019-01-12T11:28:57.607Z,215
2019-01-12T11:29:57.675Z,215
2019-01-12T11:30:57.561Z,215
2019-01-12T11:31:57.635Z,215
2019-01-12T11:32:57.641Z,215
2019-01-12T11:33:57.592Z,215
2019-01-12T11:34:57.598Z,216.4
2019-01-12T11:35:57.598Z,215.7
2019-01-12T11:36:57.570Z,215.3
2019-01-12T11:37:57.576Z,215.1
2019-01-12T11:38:57.593Z,215.1
2019-01-12T11:39:57.539Z,215
2019-01-12T11:40:57.556Z,217.1
2019-01-12T11:41:57.590Z,218.8
2019-01-12T11:42:57.546Z,216.7
2019-01-12T11:43:57.580Z,215.8
2019-01-12T11:44:57.541Z,215.4
2019-01-12T11:45:57.604Z,215.2
2019-01-12T11:46:57.706Z,215.1
2019-01-12T11:47:57.612Z,215
2019-01-12T11:48:57.567Z,215
2019-01-12T11:49:57.647Z,215
2019-01-12T11:50:57.579Z,215
2019-01-12T11:51:57.619Z,215
2019-01-12T11:52:57.598Z,215
2019-01-12T11:53:57.548Z,221.5
2019-01-12T11:54:57.597Z,214.9
2019-01-12T11:55:57.612Z,202.8
2019-01-12T11:56:57.544Z,205.2
2019-01-12T11:57:57.601Z,210.5
2019-01-12T11:58:57.588Z,212.9
2019-01-12T11:59:57.559Z,214
2019-01-12T12:00:57.563Z,214.5
2019-01-12T12:01:57.628Z,214.8
2019-01-12T12:02:57.585Z,214.9
2019-01-12T12:03:57.552Z,215
2019-01-12T12:04:57.591Z,215
2019-01-12T12:05:57.682Z,215
2019-01-12T12:06:57.558Z,215
2019-01-12T12:07:57.564Z,215
2019-01-12T12:08:57.484Z,215
2019-01-12T12:09:57.514Z,217.1
2019-01-12T12:10:57.620Z,226.1
2019-01-12T12:11:57.568Z,231.8
2019-01-12T12:12:57.616Z,234.8
2019-01-12T12:13:57.557Z,230.4
2019-01-12T12:14:57.528Z,222.1
2019-01-12T12:15:57.603Z,218.3
2019-01-12T12:16:57.603Z,216.5
2019-01-12T12:17:57.578Z,215.7
2019-01-12T12:18:57.650Z,215.3
2019-01-12T12:19:57.554Z,215.2
2019-01-12T12:20:57.495Z,215.1
2019-01-12T12:21:57.578Z,215
2019-01-12T12:22:57.647Z,215
2019-01-12T12:23:57.591Z,215
2019-01-12T12:24:57.625Z,215
2019-01-12T12:25:57.502Z,203.7
2019-01-12T12:26:57.843Z,185.2
2019-01-12T12:28:03.015Z,176.8
2019-01-12T12:28:57.561Z,173.1
2019-01-12T12:29:57.646Z,171.4
2019-01-12T12:30:57.509Z,170.7
2019-01-12T12:31:57.559Z,170.3
2019-01-12T12:32:57.605Z,170.1
2019-01-12T12:33:57.490Z,170.1
2019-01-12T12:34:57.630Z,170
2019-01-12T12:35:57.594Z,170
2019-01-12T12:36:57.513Z,170
2019-01-12T12:37:57.544Z,170
2019-01-12T12:38:57.544Z,170
2019-01-12T12:39:57.592Z,170
2019-01-12T12:40:57.556Z,170
2019-01-12T12:41:57.495Z,179.3
2019-01-12T12:42:58.802Z,186.4
2019-01-12T12:43:57.578Z,189.7
2019-01-12T12:45:07.539Z,191.2
2019-01-12T12:45:57.600Z,191.9
2019-01-12T12:46:57.558Z,192.2
2019-01-12T12:47:57.534Z,192.4
2019-01-12T12:48:59.384Z,192.4
2019-01-12T12:49:57.608Z,192.5
2019-01-12T12:52:01.998Z,192.5
2019-01-12T12:53:02.001Z,192.5
2019-01-12T12:54:02.027Z,192.5
2019-01-12T12:55:02.083Z,192.5
2019-01-12T12:56:02.132Z,192.5
2019-01-12T12:57:02.011Z,192.5
2019-01-12T12:58:04.544Z,192.5
2019-01-12T12:59:01.988Z,192.5
2019-01-12T13:00:02.078Z,192.5
2019-01-12T13:01:02.033Z,192.5
2019-01-12T13:02:02.031Z,192.5
2019-01-12T13:03:02.096Z,192.5
2019-01-12T13:04:01.974Z,192.5
2019-01-12T13:05:02.045Z,192.5
2019-01-12T13:06:02.070Z,192.5
2019-01-12T13:07:02.174Z,192.5
2019-01-12T13:08:02.185Z,192.5
2019-01-12T13:09:02.010Z,192.5
2019-01-12T13:10:01.962Z,192.5
2019-01-12T13:11:02.049Z,192.5
2019-01-12T13:12:02.054Z,192.5
2019-01-12T13:13:02.084Z,192.5
2019-01-12T13:14:02.082Z,192.5
2019-01-12T13:15:02.026Z,192.5
2019-01-12T13:16:02.063Z,192.5
2019-01-12T13:17:02.063Z,192.5
2019-01-12T13:18:02.057Z,199.2
2019-01-12T13:19:01.981Z,207.7
2019-01-12T13:20:02.166Z,211.6
2019-01-12T13:21:02.058Z,213.4
2019-01-12T13:22:02.101Z,214.3